sensor_id;sensor_type;location;lat;lon;timestamp;P1;durP1;ratioP1;P2;durP2;ratioP2
4652;SDS011;9900;48.738;9.306;2024-03-02T00:02:02;14.53;;;10.10;;
4652;SDS011;9900;48.738;9.306;2024-03-02T00:04:31;19.00;;;11.13;;
4652;SDS011;9900;48.738;9.306;2024-03-02T00:06:59;18.50;;;11.37;;
4652;SDS011;9900;48.738;9.306;2024-03-02T00:09:28;19.27;;;11.77;;
4652;SDS011;9900;48.738;9.306;2024-03-02T00:11:57;20.13;;;11.73;;
4652;SDS011;9900;48.738;9.306;2024-03-02T00:14:27;20.23;;;12.50;;
4652;SDS011;9900;48.738;9.306;2024-03-02T00:16:57;19.23;;;11.90;;
4652;SDS011;9900;48.738;9.306;2024-03-02T00:19:28;17.67;;;11.23;;
4652;SDS011;9900;48.738;9.306;2024-03-02T00:21:59;17.90;;;11.63;;
4652;SDS011;9900;48.738;9.306;2024-03-02T00:24:31;16.53;;;11.20;;
4652;SDS011;9900;48.738;9.306;2024-03-02T00:27:01;17.53;;;10.63;;
4652;SDS011;9900;48.738;9.306;2024-03-02T00:29:32;18.93;;;10.87;;
4652;SDS011;9900;48.738;9.306;2024-03-02T00:32:01;17.07;;;11.00;;
4652;SDS011;9900;48.738;9.306;2024-03-02T00:34:31;14.77;;;11.30;;
4652;SDS011;9900;48.738;9.306;2024-03-02T00:37:01;18.40;;;11.10;;
4652;SDS011;9900;48.738;9.306;2024-03-02T00:39:30;17.23;;;10.30;;
4652;SDS011;9900;48.738;9.306;2024-03-02T00:41:59;16.47;;;10.97;;
4652;SDS011;9900;48.738;9.306;2024-03-02T00:44:28;15.80;;;10.13;;
4652;SDS011;9900;48.738;9.306;2024-03-02T00:47:01;15.50;;;10.50;;
4652;SDS011;9900;48.738;9.306;2024-03-02T00:49:32;14.80;;;10.43;;
4652;SDS011;9900;48.738;9.306;2024-03-02T00:52:03;17.40;;;11.17;;
4652;SDS011;9900;48.738;9.306;2024-03-02T00:54:32;18.47;;;12.50;;
4652;SDS011;9900;48.738;9.306;2024-03-02T00:57:01;22.93;;;11.40;;
4652;SDS011;9900;48.738;9.306;2024-03-02T00:59:30;16.83;;;10.70;;
4652;SDS011;9900;48.738;9.306;2024-03-02T01:01:59;18.17;;;11.83;;
4652;SDS011;9900;48.738;9.306;2024-03-02T01:04:28;21.97;;;12.10;;
4652;SDS011;9900;48.738;9.306;2024-03-02T01:06:59;18.03;;;11.50;;
4652;SDS011;9900;48.738;9.306;2024-03-02T01:09:27;17.97;;;11.47;;
4652;SDS011;9900;48.738;9.306;2024-03-02T01:11:56;16.43;;;11.00;;
4652;SDS011;9900;48.738;9.306;2024-03-02T01:14:26;17.43;;;11.07;;
4652;SDS011;9900;48.738;9.306;2024-03-02T01:16:55;19.30;;;11.07;;
4652;SDS011;9900;48.738;9.306;2024-03-02T01:19:24;19.23;;;10.83;;
4652;SDS011;9900;48.738;9.306;2024-03-02T01:21:53;15.93;;;10.60;;
4652;SDS011;9900;48.738;9.306;2024-03-02T01:24:23;15.87;;;11.50;;
4652;SDS011;9900;48.738;9.306;2024-03-02T01:26:52;19.63;;;12.07;;
4652;SDS011;9900;48.738;9.306;2024-03-02T01:29:21;18.50;;;11.97;;
4652;SDS011;9900;48.738;9.306;2024-03-02T01:31:50;18.90;;;11.03;;
4652;SDS011;9900;48.738;9.306;2024-03-02T01:34:20;19.70;;;11.87;;
4652;SDS011;9900;48.738;9.306;2024-03-02T01:36:49;18.27;;;11.03;;
4652;SDS011;9900;48.738;9.306;2024-03-02T01:39:18;17.63;;;10.57;;
4652;SDS011;9900;48.738;9.306;2024-03-02T01:41:48;15.50;;;9.87;;
4652;SDS011;9900;48.738;9.306;2024-03-02T01:44:17;15.57;;;10.43;;
4652;SDS011;9900;48.738;9.306;2024-03-02T01:46:46;16.20;;;9.30;;
4652;SDS011;9900;48.738;9.306;2024-03-02T01:49:14;20.90;;;10.93;;
4652;SDS011;9900;48.738;9.306;2024-03-02T01:51:43;17.60;;;11.33;;
4652;SDS011;9900;48.738;9.306;2024-03-02T01:54:12;18.53;;;10.10;;
4652;SDS011;9900;48.738;9.306;2024-03-02T01:56:41;18.53;;;11.07;;
4652;SDS011;9900;48.738;9.306;2024-03-02T01:59:11;15.90;;;10.60;;
4652;SDS011;9900;48.738;9.306;2024-03-02T02:01:40;18.60;;;11.63;;
4652;SDS011;9900;48.738;9.306;2024-03-02T02:04:09;16.37;;;10.40;;
4652;SDS011;9900;48.738;9.306;2024-03-02T02:06:38;16.33;;;10.30;;
4652;SDS011;9900;48.738;9.306;2024-03-02T02:09:06;17.77;;;10.30;;
4652;SDS011;9900;48.738;9.306;2024-03-02T02:11:36;14.40;;;9.27;;
4652;SDS011;9900;48.738;9.306;2024-03-02T02:14:06;18.40;;;10.40;;
4652;SDS011;9900;48.738;9.306;2024-03-02T02:16:36;17.00;;;9.43;;
4652;SDS011;9900;48.738;9.306;2024-03-02T02:19:04;15.73;;;10.47;;
4652;SDS011;9900;48.738;9.306;2024-03-02T02:21:35;19.17;;;9.83;;
4652;SDS011;9900;48.738;9.306;2024-03-02T02:24:04;16.93;;;10.37;;
4652;SDS011;9900;48.738;9.306;2024-03-02T02:26:33;16.97;;;10.03;;
4652;SDS011;9900;48.738;9.306;2024-03-02T02:29:01;16.00;;;10.10;;
4652;SDS011;9900;48.738;9.306;2024-03-02T02:31:36;19.90;;;11.00;;
4652;SDS011;9900;48.738;9.306;2024-03-02T02:34:05;16.37;;;9.73;;
4652;SDS011;9900;48.738;9.306;2024-03-02T02:36:35;13.03;;;9.33;;
4652;SDS011;9900;48.738;9.306;2024-03-02T02:39:05;17.03;;;10.43;;
4652;SDS011;9900;48.738;9.306;2024-03-02T02:41:36;16.23;;;10.00;;
4652;SDS011;9900;48.738;9.306;2024-03-02T02:44:05;18.33;;;11.50;;
4652;SDS011;9900;48.738;9.306;2024-03-02T02:46:33;17.40;;;9.97;;
4652;SDS011;9900;48.738;9.306;2024-03-02T02:49:02;15.97;;;10.13;;
4652;SDS011;9900;48.738;9.306;2024-03-02T02:51:31;15.83;;;10.47;;
4652;SDS011;9900;48.738;9.306;2024-03-02T02:54:01;16.63;;;10.93;;
4652;SDS011;9900;48.738;9.306;2024-03-02T02:56:30;19.47;;;11.37;;
4652;SDS011;9900;48.738;9.306;2024-03-02T02:58:58;15.30;;;9.90;;
4652;SDS011;9900;48.738;9.306;2024-03-02T03:01:27;17.07;;;9.70;;
4652;SDS011;9900;48.738;9.306;2024-03-02T03:03:56;17.80;;;10.80;;
4652;SDS011;9900;48.738;9.306;2024-03-02T03:06:25;18.43;;;10.80;;
4652;SDS011;9900;48.738;9.306;2024-03-02T03:08:53;14.57;;;10.50;;
4652;SDS011;9900;48.738;9.306;2024-03-02T03:11:24;14.93;;;9.87;;
4652;SDS011;9900;48.738;9.306;2024-03-02T03:13:53;14.70;;;9.30;;
4652;SDS011;9900;48.738;9.306;2024-03-02T03:16:22;16.87;;;9.70;;
4652;SDS011;9900;48.738;9.306;2024-03-02T03:18:51;23.33;;;10.40;;
4652;SDS011;9900;48.738;9.306;2024-03-02T03:21:20;15.00;;;9.83;;
4652;SDS011;9900;48.738;9.306;2024-03-02T03:23:49;16.20;;;10.53;;
4652;SDS011;9900;48.738;9.306;2024-03-02T03:26:18;17.50;;;9.60;;
4652;SDS011;9900;48.738;9.306;2024-03-02T03:28:48;14.50;;;9.07;;
4652;SDS011;9900;48.738;9.306;2024-03-02T03:31:17;16.20;;;10.10;;
4652;SDS011;9900;48.738;9.306;2024-03-02T03:33:45;15.10;;;8.93;;
4652;SDS011;9900;48.738;9.306;2024-03-02T03:36:14;16.77;;;10.53;;
4652;SDS011;9900;48.738;9.306;2024-03-02T03:38:43;17.47;;;10.43;;
4652;SDS011;9900;48.738;9.306;2024-03-02T03:41:11;16.17;;;9.27;;
4652;SDS011;9900;48.738;9.306;2024-03-02T03:43:40;16.00;;;10.07;;
4652;SDS011;9900;48.738;9.306;2024-03-02T03:46:10;15.70;;;10.00;;
4652;SDS011;9900;48.738;9.306;2024-03-02T03:48:39;12.90;;;9.20;;
4652;SDS011;9900;48.738;9.306;2024-03-02T03:51:09;13.90;;;9.10;;
4652;SDS011;9900;48.738;9.306;2024-03-02T03:53:38;15.57;;;9.73;;
4652;SDS011;9900;48.738;9.306;2024-03-02T03:56:06;17.73;;;10.10;;
4652;SDS011;9900;48.738;9.306;2024-03-02T03:58:36;20.40;;;11.17;;
4652;SDS011;9900;48.738;9.306;2024-03-02T04:01:04;18.87;;;10.50;;
4652;SDS011;9900;48.738;9.306;2024-03-02T04:03:34;14.30;;;9.90;;
4652;SDS011;9900;48.738;9.306;2024-03-02T04:06:03;16.20;;;10.53;;
4652;SDS011;9900;48.738;9.306;2024-03-02T04:08:32;17.20;;;9.47;;
4652;SDS011;9900;48.738;9.306;2024-03-02T04:11:01;15.80;;;10.00;;
4652;SDS011;9900;48.738;9.306;2024-03-02T04:13:30;17.07;;;10.07;;
4652;SDS011;9900;48.738;9.306;2024-03-02T04:15:58;17.30;;;10.13;;
4652;SDS011;9900;48.738;9.306;2024-03-02T04:18:27;18.97;;;11.70;;
4652;SDS011;9900;48.738;9.306;2024-03-02T04:20:57;17.33;;;10.73;;
4652;SDS011;9900;48.738;9.306;2024-03-02T04:23:26;13.73;;;9.93;;
4652;SDS011;9900;48.738;9.306;2024-03-02T04:25:55;15.43;;;9.77;;
4652;SDS011;9900;48.738;9.306;2024-03-02T04:28:24;14.73;;;9.80;;
4652;SDS011;9900;48.738;9.306;2024-03-02T04:30:52;15.43;;;10.27;;
4652;SDS011;9900;48.738;9.306;2024-03-02T04:33:21;24.37;;;11.37;;
4652;SDS011;9900;48.738;9.306;2024-03-02T04:35:50;17.50;;;10.23;;
4652;SDS011;9900;48.738;9.306;2024-03-02T04:38:20;15.60;;;10.17;;
4652;SDS011;9900;48.738;9.306;2024-03-02T04:40:49;13.90;;;9.27;;
4652;SDS011;9900;48.738;9.306;2024-03-02T04:43:17;21.20;;;11.23;;
4652;SDS011;9900;48.738;9.306;2024-03-02T04:45:46;15.27;;;10.03;;
4652;SDS011;9900;48.738;9.306;2024-03-02T04:48:15;16.30;;;9.93;;
4652;SDS011;9900;48.738;9.306;2024-03-02T04:50:44;16.07;;;9.43;;
4652;SDS011;9900;48.738;9.306;2024-03-02T04:53:12;14.20;;;8.67;;
4652;SDS011;9900;48.738;9.306;2024-03-02T04:55:43;17.07;;;9.83;;
4652;SDS011;9900;48.738;9.306;2024-03-02T04:58:37;20.37;;;10.80;;
4652;SDS011;9900;48.738;9.306;2024-03-02T05:01:05;19.20;;;11.20;;
4652;SDS011;9900;48.738;9.306;2024-03-02T05:03:34;16.93;;;10.17;;
4652;SDS011;9900;48.738;9.306;2024-03-02T05:06:03;18.00;;;9.63;;
4652;SDS011;9900;48.738;9.306;2024-03-02T05:08:32;19.80;;;10.33;;
4652;SDS011;9900;48.738;9.306;2024-03-02T05:11:02;15.93;;;9.53;;
4652;SDS011;9900;48.738;9.306;2024-03-02T05:13:45;17.97;;;10.47;;
4652;SDS011;9900;48.738;9.306;2024-03-02T05:16:14;17.87;;;10.07;;
4652;SDS011;9900;48.738;9.306;2024-03-02T05:18:43;15.30;;;11.00;;
4652;SDS011;9900;48.738;9.306;2024-03-02T05:21:11;18.60;;;11.40;;
4652;SDS011;9900;48.738;9.306;2024-03-02T05:23:40;19.00;;;11.30;;
4652;SDS011;9900;48.738;9.306;2024-03-02T05:26:10;16.63;;;10.23;;
4652;SDS011;9900;48.738;9.306;2024-03-02T05:28:40;18.70;;;10.40;;
4652;SDS011;9900;48.738;9.306;2024-03-02T05:31:09;19.93;;;11.60;;
4652;SDS011;9900;48.738;9.306;2024-03-02T05:33:38;15.70;;;10.83;;
4652;SDS011;9900;48.738;9.306;2024-03-02T05:36:07;16.83;;;11.07;;
4652;SDS011;9900;48.738;9.306;2024-03-02T05:38:36;20.83;;;11.50;;
4652;SDS011;9900;48.738;9.306;2024-03-02T05:41:05;23.73;;;11.40;;
4652;SDS011;9900;48.738;9.306;2024-03-02T05:43:35;17.80;;;10.13;;
4652;SDS011;9900;48.738;9.306;2024-03-02T05:46:04;16.10;;;10.07;;
4652;SDS011;9900;48.738;9.306;2024-03-02T05:48:33;21.73;;;11.27;;
4652;SDS011;9900;48.738;9.306;2024-03-02T05:51:02;16.07;;;10.20;;
4652;SDS011;9900;48.738;9.306;2024-03-02T05:53:31;16.77;;;10.03;;
4652;SDS011;9900;48.738;9.306;2024-03-02T05:56:00;18.57;;;10.43;;
4652;SDS011;9900;48.738;9.306;2024-03-02T05:58:31;17.83;;;9.80;;
4652;SDS011;9900;48.738;9.306;2024-03-02T06:01:15;17.37;;;9.77;;
4652;SDS011;9900;48.738;9.306;2024-03-02T06:03:44;16.23;;;10.40;;
4652;SDS011;9900;48.738;9.306;2024-03-02T06:06:13;17.70;;;10.77;;
4652;SDS011;9900;48.738;9.306;2024-03-02T06:08:42;22.53;;;10.30;;
4652;SDS011;9900;48.738;9.306;2024-03-02T06:11:11;20.33;;;10.93;;
4652;SDS011;9900;48.738;9.306;2024-03-02T06:13:39;17.00;;;11.40;;
4652;SDS011;9900;48.738;9.306;2024-03-02T06:16:08;16.20;;;10.43;;
4652;SDS011;9900;48.738;9.306;2024-03-02T06:18:38;16.73;;;10.50;;
4652;SDS011;9900;48.738;9.306;2024-03-02T06:21:07;18.47;;;9.83;;
4652;SDS011;9900;48.738;9.306;2024-03-02T06:23:36;16.30;;;9.63;;
4652;SDS011;9900;48.738;9.306;2024-03-02T06:26:05;13.60;;;9.30;;
4652;SDS011;9900;48.738;9.306;2024-03-02T06:28:34;16.07;;;9.90;;
4652;SDS011;9900;48.738;9.306;2024-03-02T06:31:02;16.63;;;10.77;;
4652;SDS011;9900;48.738;9.306;2024-03-02T06:33:32;16.47;;;9.93;;
4652;SDS011;9900;48.738;9.306;2024-03-02T06:36:02;20.17;;;12.23;;
4652;SDS011;9900;48.738;9.306;2024-03-02T06:38:31;16.63;;;9.73;;
4652;SDS011;9900;48.738;9.306;2024-03-02T06:41:00;20.10;;;11.10;;
4652;SDS011;9900;48.738;9.306;2024-03-02T06:43:29;18.60;;;10.27;;
4652;SDS011;9900;48.738;9.306;2024-03-02T06:45:58;18.50;;;10.47;;
4652;SDS011;9900;48.738;9.306;2024-03-02T06:48:27;15.30;;;9.23;;
4652;SDS011;9900;48.738;9.306;2024-03-02T06:50:57;16.30;;;10.47;;
4652;SDS011;9900;48.738;9.306;2024-03-02T06:53:27;18.60;;;10.17;;
4652;SDS011;9900;48.738;9.306;2024-03-02T06:55:57;23.10;;;11.73;;
4652;SDS011;9900;48.738;9.306;2024-03-02T06:58:26;20.27;;;12.82;;
4652;SDS011;9900;48.738;9.306;2024-03-02T07:00:54;20.70;;;11.80;;
4652;SDS011;9900;48.738;9.306;2024-03-02T07:03:23;22.13;;;10.47;;
4652;SDS011;9900;48.738;9.306;2024-03-02T07:05:52;18.27;;;11.17;;
4652;SDS011;9900;48.738;9.306;2024-03-02T07:08:21;16.87;;;10.80;;
4652;SDS011;9900;48.738;9.306;2024-03-02T07:10:51;19.33;;;11.60;;
4652;SDS011;9900;48.738;9.306;2024-03-02T07:13:20;14.90;;;10.27;;
4652;SDS011;9900;48.738;9.306;2024-03-02T07:15:49;21.13;;;11.77;;
4652;SDS011;9900;48.738;9.306;2024-03-02T07:18:39;17.67;;;10.63;;
4652;SDS011;9900;48.738;9.306;2024-03-02T07:21:10;15.60;;;10.50;;
4652;SDS011;9900;48.738;9.306;2024-03-02T07:23:39;17.97;;;10.60;;
4652;SDS011;9900;48.738;9.306;2024-03-02T07:26:09;15.70;;;10.03;;
4652;SDS011;9900;48.738;9.306;2024-03-02T07:28:41;23.33;;;11.70;;
4652;SDS011;9900;48.738;9.306;2024-03-02T07:31:11;19.63;;;10.57;;
4652;SDS011;9900;48.738;9.306;2024-03-02T07:33:39;15.37;;;11.10;;
4652;SDS011;9900;48.738;9.306;2024-03-02T07:36:08;17.83;;;10.87;;
4652;SDS011;9900;48.738;9.306;2024-03-02T07:38:37;14.63;;;10.30;;
4652;SDS011;9900;48.738;9.306;2024-03-02T07:41:07;18.17;;;11.57;;
4652;SDS011;9900;48.738;9.306;2024-03-02T07:43:37;18.80;;;11.10;;
4652;SDS011;9900;48.738;9.306;2024-03-02T07:46:07;19.70;;;11.53;;
4652;SDS011;9900;48.738;9.306;2024-03-02T07:48:35;18.37;;;11.50;;
4652;SDS011;9900;48.738;9.306;2024-03-02T07:51:05;22.83;;;10.97;;
4652;SDS011;9900;48.738;9.306;2024-03-02T07:53:33;19.07;;;11.97;;
4652;SDS011;9900;48.738;9.306;2024-03-02T07:56:04;19.67;;;12.57;;
4652;SDS011;9900;48.738;9.306;2024-03-02T07:58:33;20.70;;;11.60;;
4652;SDS011;9900;48.738;9.306;2024-03-02T08:01:04;18.13;;;11.80;;
4652;SDS011;9900;48.738;9.306;2024-03-02T08:03:32;21.63;;;12.70;;
4652;SDS011;9900;48.738;9.306;2024-03-02T08:06:02;18.97;;;11.27;;
4652;SDS011;9900;48.738;9.306;2024-03-02T08:08:31;19.83;;;11.07;;
4652;SDS011;9900;48.738;9.306;2024-03-02T08:11:00;19.10;;;12.30;;
4652;SDS011;9900;48.738;9.306;2024-03-02T08:13:28;26.57;;;14.50;;
4652;SDS011;9900;48.738;9.306;2024-03-02T08:15:57;23.17;;;12.73;;
4652;SDS011;9900;48.738;9.306;2024-03-02T08:18:27;18.60;;;11.20;;
4652;SDS011;9900;48.738;9.306;2024-03-02T08:20:56;17.63;;;11.10;;
4652;SDS011;9900;48.738;9.306;2024-03-02T08:23:25;19.43;;;11.50;;
4652;SDS011;9900;48.738;9.306;2024-03-02T08:25:54;18.10;;;11.90;;
4652;SDS011;9900;48.738;9.306;2024-03-02T08:28:23;16.77;;;11.10;;
4652;SDS011;9900;48.738;9.306;2024-03-02T08:30:51;15.60;;;10.67;;
4652;SDS011;9900;48.738;9.306;2024-03-02T08:33:20;16.53;;;11.50;;
4652;SDS011;9900;48.738;9.306;2024-03-02T08:35:50;14.93;;;10.23;;
4652;SDS011;9900;48.738;9.306;2024-03-02T08:38:19;17.50;;;11.70;;
4652;SDS011;9900;48.738;9.306;2024-03-02T08:40:48;15.37;;;11.33;;
4652;SDS011;9900;48.738;9.306;2024-03-02T08:43:17;19.17;;;12.37;;
4652;SDS011;9900;48.738;9.306;2024-03-02T08:45:46;17.87;;;11.70;;
4652;SDS011;9900;48.738;9.306;2024-03-02T08:48:15;16.50;;;11.60;;
4652;SDS011;9900;48.738;9.306;2024-03-02T08:50:44;17.60;;;12.53;;
4652;SDS011;9900;48.738;9.306;2024-03-02T08:53:15;18.60;;;11.37;;
4652;SDS011;9900;48.738;9.306;2024-03-02T08:55:46;17.57;;;10.93;;
4652;SDS011;9900;48.738;9.306;2024-03-02T08:58:14;19.13;;;11.77;;
4652;SDS011;9900;48.738;9.306;2024-03-02T09:00:43;17.73;;;11.93;;
4652;SDS011;9900;48.738;9.306;2024-03-02T09:03:12;21.03;;;12.17;;
4652;SDS011;9900;48.738;9.306;2024-03-02T09:05:42;19.40;;;11.90;;
4652;SDS011;9900;48.738;9.306;2024-03-02T09:08:10;16.63;;;11.20;;
4652;SDS011;9900;48.738;9.306;2024-03-02T09:10:41;19.63;;;10.70;;
4652;SDS011;9900;48.738;9.306;2024-03-02T09:13:11;14.03;;;9.47;;
4652;SDS011;9900;48.738;9.306;2024-03-02T09:15:39;14.60;;;9.73;;
4652;SDS011;9900;48.738;9.306;2024-03-02T09:18:08;13.07;;;9.67;;
4652;SDS011;9900;48.738;9.306;2024-03-02T09:20:37;13.60;;;8.50;;
4652;SDS011;9900;48.738;9.306;2024-03-02T09:23:06;13.93;;;6.90;;
4652;SDS011;9900;48.738;9.306;2024-03-02T09:25:35;9.83;;;7.60;;
4652;SDS011;9900;48.738;9.306;2024-03-02T09:28:06;8.77;;;7.20;;
4652;SDS011;9900;48.738;9.306;2024-03-02T09:30:35;8.80;;;7.00;;
4652;SDS011;9900;48.738;9.306;2024-03-02T09:33:04;7.13;;;6.40;;
4652;SDS011;9900;48.738;9.306;2024-03-02T09:35:36;6.40;;;5.20;;
4652;SDS011;9900;48.738;9.306;2024-03-02T09:38:05;8.83;;;5.90;;
4652;SDS011;9900;48.738;9.306;2024-03-02T09:40:34;6.30;;;5.27;;
4652;SDS011;9900;48.738;9.306;2024-03-02T09:43:03;7.60;;;5.40;;
4652;SDS011;9900;48.738;9.306;2024-03-02T09:45:33;5.90;;;4.90;;
4652;SDS011;9900;48.738;9.306;2024-03-02T09:48:02;6.53;;;5.20;;
4652;SDS011;9900;48.738;9.306;2024-03-02T09:50:32;5.97;;;4.63;;
4652;SDS011;9900;48.738;9.306;2024-03-02T09:53:00;6.00;;;4.03;;
4652;SDS011;9900;48.738;9.306;2024-03-02T09:55:30;7.97;;;5.10;;
4652;SDS011;9900;48.738;9.306;2024-03-02T09:57:59;7.70;;;4.70;;
4652;SDS011;9900;48.738;9.306;2024-03-02T10:00:28;7.27;;;5.37;;
4652;SDS011;9900;48.738;9.306;2024-03-02T10:02:58;6.20;;;4.93;;
4652;SDS011;9900;48.738;9.306;2024-03-02T10:05:27;6.30;;;5.40;;
4652;SDS011;9900;48.738;9.306;2024-03-02T10:07:59;5.50;;;4.60;;
4652;SDS011;9900;48.738;9.306;2024-03-02T10:10:36;6.97;;;4.70;;
4652;SDS011;9900;48.738;9.306;2024-03-02T10:13:08;8.23;;;4.70;;
4652;SDS011;9900;48.738;9.306;2024-03-02T10:15:38;6.20;;;4.80;;
4652;SDS011;9900;48.738;9.306;2024-03-02T10:18:11;6.93;;;4.73;;
4652;SDS011;9900;48.738;9.306;2024-03-02T10:20:41;5.37;;;4.70;;
4652;SDS011;9900;48.738;9.306;2024-03-02T10:23:10;6.93;;;4.97;;
4652;SDS011;9900;48.738;9.306;2024-03-02T10:25:39;7.57;;;5.70;;
4652;SDS011;9900;48.738;9.306;2024-03-02T10:28:21;9.27;;;5.10;;
4652;SDS011;9900;48.738;9.306;2024-03-02T10:30:50;5.80;;;4.53;;
4652;SDS011;9900;48.738;9.306;2024-03-02T10:33:22;8.00;;;5.57;;
4652;SDS011;9900;48.738;9.306;2024-03-02T10:35:52;5.10;;;4.50;;
4652;SDS011;9900;48.738;9.306;2024-03-02T10:38:21;5.60;;;4.47;;
4652;SDS011;9900;48.738;9.306;2024-03-02T10:40:50;4.30;;;3.90;;
4652;SDS011;9900;48.738;9.306;2024-03-02T10:43:20;5.33;;;4.10;;
4652;SDS011;9900;48.738;9.306;2024-03-02T10:45:49;5.70;;;3.97;;
4652;SDS011;9900;48.738;9.306;2024-03-02T10:48:17;4.27;;;3.83;;
4652;SDS011;9900;48.738;9.306;2024-03-02T10:50:48;4.93;;;4.03;;
4652;SDS011;9900;48.738;9.306;2024-03-02T10:53:18;3.73;;;3.27;;
4652;SDS011;9900;48.738;9.306;2024-03-02T10:55:47;4.50;;;3.73;;
4652;SDS011;9900;48.738;9.306;2024-03-02T10:58:20;4.10;;;3.40;;
4652;SDS011;9900;48.738;9.306;2024-03-02T11:00:49;3.40;;;3.10;;
4652;SDS011;9900;48.738;9.306;2024-03-02T11:03:18;3.10;;;2.80;;
4652;SDS011;9900;48.738;9.306;2024-03-02T11:05:48;2.63;;;2.20;;
4652;SDS011;9900;48.738;9.306;2024-03-02T11:08:18;3.80;;;2.77;;
4652;SDS011;9900;48.738;9.306;2024-03-02T11:10:50;3.60;;;2.53;;
4652;SDS011;9900;48.738;9.306;2024-03-02T11:13:21;2.33;;;2.13;;
4652;SDS011;9900;48.738;9.306;2024-03-02T11:15:51;2.30;;;2.13;;
4652;SDS011;9900;48.738;9.306;2024-03-02T11:18:23;4.53;;;2.60;;
4652;SDS011;9900;48.738;9.306;2024-03-02T11:20:53;3.27;;;2.10;;
4652;SDS011;9900;48.738;9.306;2024-03-02T11:23:31;2.17;;;1.77;;
4652;SDS011;9900;48.738;9.306;2024-03-02T11:26:16;5.03;;;2.27;;
4652;SDS011;9900;48.738;9.306;2024-03-02T11:28:46;1.80;;;1.70;;
4652;SDS011;9900;48.738;9.306;2024-03-02T11:31:15;2.03;;;1.83;;
4652;SDS011;9900;48.738;9.306;2024-03-02T11:33:44;1.87;;;1.77;;
4652;SDS011;9900;48.738;9.306;2024-03-02T11:36:17;1.87;;;1.50;;
4652;SDS011;9900;48.738;9.306;2024-03-02T11:38:48;1.73;;;1.60;;
4652;SDS011;9900;48.738;9.306;2024-03-02T11:41:20;2.33;;;1.70;;
4652;SDS011;9900;48.738;9.306;2024-03-02T11:43:49;2.03;;;1.83;;
4652;SDS011;9900;48.738;9.306;2024-03-02T11:46:18;1.90;;;1.80;;
4652;SDS011;9900;48.738;9.306;2024-03-02T11:48:51;1.90;;;1.70;;
4652;SDS011;9900;48.738;9.306;2024-03-02T11:51:21;3.23;;;2.37;;
4652;SDS011;9900;48.738;9.306;2024-03-02T11:53:50;2.03;;;1.80;;
4652;SDS011;9900;48.738;9.306;2024-03-02T11:56:19;2.80;;;2.27;;
4652;SDS011;9900;48.738;9.306;2024-03-02T11:58:49;3.20;;;1.60;;
4652;SDS011;9900;48.738;9.306;2024-03-02T12:01:20;1.43;;;1.30;;
4652;SDS011;9900;48.738;9.306;2024-03-02T12:03:49;4.00;;;1.33;;
4652;SDS011;9900;48.738;9.306;2024-03-02T12:06:21;1.90;;;1.47;;
4652;SDS011;9900;48.738;9.306;2024-03-02T12:08:52;6.27;;;1.83;;
4652;SDS011;9900;48.738;9.306;2024-03-02T12:11:21;3.90;;;1.60;;
4652;SDS011;9900;48.738;9.306;2024-03-02T12:13:52;1.60;;;1.50;;
4652;SDS011;9900;48.738;9.306;2024-03-02T12:16:24;2.70;;;1.10;;
4652;SDS011;9900;48.738;9.306;2024-03-02T12:18:53;1.40;;;0.80;;
4652;SDS011;9900;48.738;9.306;2024-03-02T12:21:24;1.63;;;1.10;;
4652;SDS011;9900;48.738;9.306;2024-03-02T12:23:53;1.13;;;1.03;;
4652;SDS011;9900;48.738;9.306;2024-03-02T12:26:22;2.20;;;1.20;;
4652;SDS011;9900;48.738;9.306;2024-03-02T12:28:51;3.40;;;1.20;;
4652;SDS011;9900;48.738;9.306;2024-03-02T12:31:20;1.07;;;0.80;;
4652;SDS011;9900;48.738;9.306;2024-03-02T12:33:49;1.13;;;0.93;;
4652;SDS011;9900;48.738;9.306;2024-03-02T12:36:17;1.20;;;1.00;;
4652;SDS011;9900;48.738;9.306;2024-03-02T12:38:49;1.53;;;1.43;;
4652;SDS011;9900;48.738;9.306;2024-03-02T12:41:22;2.10;;;1.00;;
4652;SDS011;9900;48.738;9.306;2024-03-02T12:43:51;1.10;;;1.00;;
4652;SDS011;9900;48.738;9.306;2024-03-02T12:46:21;1.83;;;1.20;;
4652;SDS011;9900;48.738;9.306;2024-03-02T12:48:50;1.10;;;1.00;;
4652;SDS011;9900;48.738;9.306;2024-03-02T12:51:19;3.33;;;1.20;;
4652;SDS011;9900;48.738;9.306;2024-03-02T12:53:54;2.83;;;1.27;;
4652;SDS011;9900;48.738;9.306;2024-03-02T12:56:23;3.83;;;0.93;;
4652;SDS011;9900;48.738;9.306;2024-03-02T12:58:53;1.87;;;1.27;;
4652;SDS011;9900;48.738;9.306;2024-03-02T13:01:22;2.43;;;1.10;;
4652;SDS011;9900;48.738;9.306;2024-03-02T13:03:52;1.27;;;1.17;;
4652;SDS011;9900;48.738;9.306;2024-03-02T13:06:22;0.80;;;0.80;;
4652;SDS011;9900;48.738;9.306;2024-03-02T13:08:51;1.10;;;1.00;;
4652;SDS011;9900;48.738;9.306;2024-03-02T13:11:22;2.80;;;1.03;;
4652;SDS011;9900;48.738;9.306;2024-03-02T13:13:52;1.17;;;1.07;;
4652;SDS011;9900;48.738;9.306;2024-03-02T13:16:20;1.33;;;1.00;;
4652;SDS011;9900;48.738;9.306;2024-03-02T13:18:58;1.27;;;1.17;;
4652;SDS011;9900;48.738;9.306;2024-03-02T13:21:29;1.37;;;1.07;;
4652;SDS011;9900;48.738;9.306;2024-03-02T13:23:58;1.27;;;1.00;;
4652;SDS011;9900;48.738;9.306;2024-03-02T13:26:28;2.10;;;0.90;;
4652;SDS011;9900;48.738;9.306;2024-03-02T13:28:58;1.20;;;1.00;;
4652;SDS011;9900;48.738;9.306;2024-03-02T13:31:26;1.23;;;0.97;;
4652;SDS011;9900;48.738;9.306;2024-03-02T13:33:55;1.00;;;0.90;;
4652;SDS011;9900;48.738;9.306;2024-03-02T13:36:24;2.17;;;1.00;;
4652;SDS011;9900;48.738;9.306;2024-03-02T13:38:53;1.20;;;0.83;;
4652;SDS011;9900;48.738;9.306;2024-03-02T13:41:22;1.33;;;0.70;;
4652;SDS011;9900;48.738;9.306;2024-03-02T13:43:52;1.47;;;0.90;;
4652;SDS011;9900;48.738;9.306;2024-03-02T13:46:21;0.83;;;0.80;;
4652;SDS011;9900;48.738;9.306;2024-03-02T13:48:50;4.80;;;0.97;;
4652;SDS011;9900;48.738;9.306;2024-03-02T13:51:19;0.90;;;0.80;;
4652;SDS011;9900;48.738;9.306;2024-03-02T13:53:48;0.70;;;0.60;;
4652;SDS011;9900;48.738;9.306;2024-03-02T13:56:18;0.83;;;0.83;;
4652;SDS011;9900;48.738;9.306;2024-03-02T13:58:46;2.70;;;1.33;;
4652;SDS011;9900;48.738;9.306;2024-03-02T14:01:16;1.00;;;0.90;;
4652;SDS011;9900;48.738;9.306;2024-03-02T14:03:46;1.10;;;1.00;;
4652;SDS011;9900;48.738;9.306;2024-03-02T14:06:14;0.80;;;0.70;;
4652;SDS011;9900;48.738;9.306;2024-03-02T14:08:43;0.93;;;0.83;;
4652;SDS011;9900;48.738;9.306;2024-03-02T14:11:13;2.03;;;0.90;;
4652;SDS011;9900;48.738;9.306;2024-03-02T14:13:43;1.30;;;0.97;;
4652;SDS011;9900;48.738;9.306;2024-03-02T14:16:18;1.87;;;0.80;;
4652;SDS011;9900;48.738;9.306;2024-03-02T14:18:47;0.90;;;0.80;;
4652;SDS011;9900;48.738;9.306;2024-03-02T14:21:16;2.50;;;0.90;;
4652;SDS011;9900;48.738;9.306;2024-03-02T14:23:45;0.90;;;0.80;;
4652;SDS011;9900;48.738;9.306;2024-03-02T14:26:14;1.17;;;1.07;;
4652;SDS011;9900;48.738;9.306;2024-03-02T14:28:42;1.47;;;0.90;;
4652;SDS011;9900;48.738;9.306;2024-03-02T14:31:19;2.60;;;1.00;;
4652;SDS011;9900;48.738;9.306;2024-03-02T14:33:48;2.00;;;1.20;;
4652;SDS011;9900;48.738;9.306;2024-03-02T14:36:17;1.00;;;0.90;;
4652;SDS011;9900;48.738;9.306;2024-03-02T14:38:45;1.53;;;1.00;;
4652;SDS011;9900;48.738;9.306;2024-03-02T14:41:15;1.50;;;0.80;;
4652;SDS011;9900;48.738;9.306;2024-03-02T14:43:44;1.00;;;0.77;;
4652;SDS011;9900;48.738;9.306;2024-03-02T14:46:13;0.80;;;0.80;;
4652;SDS011;9900;48.738;9.306;2024-03-02T14:48:44;1.20;;;1.00;;
4652;SDS011;9900;48.738;9.306;2024-03-02T14:51:14;0.80;;;0.80;;
4652;SDS011;9900;48.738;9.306;2024-03-02T14:53:43;0.80;;;0.80;;
4652;SDS011;9900;48.738;9.306;2024-03-02T14:56:11;0.87;;;0.80;;
4652;SDS011;9900;48.738;9.306;2024-03-02T14:58:41;0.93;;;0.90;;
4652;SDS011;9900;48.738;9.306;2024-03-02T15:01:12;1.10;;;1.00;;
4652;SDS011;9900;48.738;9.306;2024-03-02T15:03:41;1.13;;;0.90;;
4652;SDS011;9900;48.738;9.306;2024-03-02T15:06:12;0.80;;;0.77;;
4652;SDS011;9900;48.738;9.306;2024-03-02T15:08:41;1.13;;;0.93;;
4652;SDS011;9900;48.738;9.306;2024-03-02T15:11:09;2.13;;;1.00;;
4652;SDS011;9900;48.738;9.306;2024-03-02T15:13:39;1.00;;;0.90;;
4652;SDS011;9900;48.738;9.306;2024-03-02T15:16:08;1.03;;;0.77;;